CSN6737 ZJSY-ZGGG
Flight info
| Callsign | CSN6737 |
|---|---|
| Flight time | 0h 56m |
| Altitude | 35100 |
| Route | PORAP8YD PORAP W222 NUMKU/K0878S1100 W223 AGTEL/K0874S1070 W71 LH DCT GYA GYA1 |
| Aircraft | B77W/H-SDE1E2E3FGHIJ2J3J4J5M1RWXY/LB1D1 |
Departure
| Time | 2026-05-04 13:42 |
|---|---|
| Airport | Sanya Phoenix International Airport (ZJSY) |
Arrival
| Time | 2026-05-04 14:39 |
|---|---|
| Airport | Guangzhou Baiyun International Airport (ZGGG) |
| Time | Latitude | Longitude | Altitude | Speed | Heading |
|---|---|---|---|---|---|
| 2026-05-04 13:02 | 18.30575 | 109.41055 | 93 ft | 0 kts | 81° |
| 2026-05-04 13:34 | 18.30576 | 109.41061 | 89 ft | 5 kts | 81° |
| 2026-05-04 13:34 | 18.30578 | 109.41098 | 89 ft | 2 kts | 99° |
| 2026-05-04 13:34 | 18.30561 | 109.41121 | 91 ft | 7 kts | 143° |
| 2026-05-04 13:35 | 18.30484 | 109.41135 | 93 ft | 8 kts | 200° |
| 2026-05-04 13:35 | 18.30432 | 109.40973 | 89 ft | 19 kts | 261° |
| 2026-05-04 13:35 | 18.30408 | 109.40807 | 88 ft | 27 kts | 261° |
| 2026-05-04 13:36 | 18.30384 | 109.40600 | 85 ft | 29 kts | 263° |
| 2026-05-04 13:36 | 18.30355 | 109.40391 | 85 ft | 29 kts | 262° |
| 2026-05-04 13:36 | 18.30328 | 109.40183 | 87 ft | 29 kts | 262° |
| 2026-05-04 13:36 | 18.30301 | 109.39974 | 85 ft | 29 kts | 262° |
| 2026-05-04 13:37 | 18.30275 | 109.39766 | 80 ft | 28 kts | 262° |
| 2026-05-04 13:37 | 18.30211 | 109.39653 | 70 ft | 0 kts | 207° |
| 2026-05-04 13:37 | 18.30209 | 109.39652 | 70 ft | 0 kts | 207° |
| 2026-05-04 13:41 | 18.30204 | 109.39649 | 78 ft | 5 kts | 203° |
| 2026-05-04 13:42 | 18.30099 | 109.39749 | 83 ft | 25 kts | 83° |
| 2026-05-04 13:42 | 18.30119 | 109.39904 | 83 ft | 35 kts | 82° |
| 2026-05-04 13:42 | 18.30210 | 109.40627 | 85 ft | 166 kts | 81° |
| 2026-05-04 13:42 | 18.30397 | 109.42136 | 926 ft | 225 kts | 82° |
| 2026-05-04 13:43 | 18.30625 | 109.43671 | 3308 ft | 214 kts | 81° |
| 2026-05-04 13:43 | 18.30887 | 109.45327 | 5036 ft | 245 kts | 80° |
| 2026-05-04 13:43 | 18.31208 | 109.47119 | 6952 ft | 249 kts | 78° |
| 2026-05-04 13:43 | 18.31597 | 109.48866 | 9035 ft | 239 kts | 69° |
| 2026-05-04 13:44 | 18.32539 | 109.50245 | 10338 ft | 235 kts | 33° |
| 2026-05-04 13:44 | 18.34040 | 109.50830 | 11075 ft | 235 kts | 9° |
| 2026-05-04 13:44 | 18.35736 | 109.51261 | 11355 ft | 267 kts | 17° |
| 2026-05-04 13:44 | 18.37570 | 109.52034 | 11622 ft | 302 kts | 25° |
| 2026-05-04 13:45 | 18.39506 | 109.53176 | 11881 ft | 337 kts | 31° |
| 2026-05-04 13:45 | 18.41528 | 109.54659 | 12119 ft | 370 kts | 36° |
| 2026-05-04 13:45 | 18.43605 | 109.56421 | 12585 ft | 393 kts | 39° |
| 2026-05-04 13:45 | 18.45698 | 109.58325 | 13419 ft | 404 kts | 40° |
| 2026-05-04 13:46 | 18.47831 | 109.60292 | 14297 ft | 410 kts | 39° |
| 2026-05-04 13:46 | 18.50091 | 109.62108 | 15131 ft | 413 kts | 28° |
| 2026-05-04 13:46 | 18.52654 | 109.63417 | 15908 ft | 418 kts | 21° |
| 2026-05-04 13:46 | 18.55361 | 109.64617 | 16757 ft | 424 kts | 20° |
| 2026-05-04 13:47 | 18.58098 | 109.65829 | 17582 ft | 431 kts | 21° |
| 2026-05-04 13:47 | 18.60873 | 109.67094 | 18377 ft | 437 kts | 21° |
| 2026-05-04 13:47 | 18.63671 | 109.68406 | 19077 ft | 443 kts | 22° |
| 2026-05-04 13:47 | 18.66492 | 109.69752 | 19802 ft | 448 kts | 22° |
| 2026-05-04 13:48 | 18.69345 | 109.71125 | 20526 ft | 452 kts | 22° |
| 2026-05-04 13:48 | 18.72221 | 109.72510 | 21214 ft | 457 kts | 22° |
| 2026-05-04 13:48 | 18.75140 | 109.73913 | 21877 ft | 464 kts | 22° |
| 2026-05-04 13:48 | 18.78091 | 109.75329 | 22530 ft | 469 kts | 22° |
| 2026-05-04 13:49 | 18.81032 | 109.76739 | 23219 ft | 473 kts | 22° |
| 2026-05-04 13:49 | 18.84086 | 109.78203 | 23791 ft | 479 kts | 22° |
| 2026-05-04 13:49 | 18.87133 | 109.79666 | 24321 ft | 483 kts | 22° |
| 2026-05-04 13:49 | 18.90164 | 109.81123 | 24868 ft | 487 kts | 22° |
| 2026-05-04 13:50 | 18.93259 | 109.82611 | 25418 ft | 490 kts | 22° |
| 2026-05-04 13:50 | 18.96369 | 109.84108 | 25926 ft | 494 kts | 21° |
| 2026-05-04 13:50 | 18.99508 | 109.85619 | 26423 ft | 498 kts | 21° |
| 2026-05-04 13:50 | 19.02669 | 109.87142 | 26902 ft | 502 kts | 21° |
| 2026-05-04 13:51 | 19.05860 | 109.88679 | 27382 ft | 505 kts | 21° |
| 2026-05-04 13:51 | 19.09068 | 109.90225 | 27811 ft | 510 kts | 21° |
| 2026-05-04 13:51 | 19.12326 | 109.91795 | 27945 ft | 520 kts | 21° |
| 2026-05-04 13:51 | 19.15651 | 109.93397 | 28031 ft | 529 kts | 21° |
| 2026-05-04 13:52 | 19.22477 | 109.96694 | 28210 ft | 542 kts | 21° |
| 2026-05-04 13:52 | 19.25870 | 109.98331 | 28386 ft | 544 kts | 21° |
| 2026-05-04 13:52 | 19.29333 | 109.99946 | 28644 ft | 544 kts | 20° |
| 2026-05-04 13:53 | 19.32818 | 110.01539 | 28974 ft | 544 kts | 20° |
| 2026-05-04 13:53 | 19.36269 | 110.03156 | 29330 ft | 543 kts | 21° |
| 2026-05-04 13:53 | 19.39708 | 110.04812 | 29679 ft | 543 kts | 21° |
| 2026-05-04 13:54 | 19.46567 | 110.08160 | 30343 ft | 542 kts | 21° |
| 2026-05-04 13:54 | 19.49993 | 110.09830 | 30659 ft | 541 kts | 21° |
| 2026-05-04 13:54 | 19.56824 | 110.13144 | 31380 ft | 539 kts | 21° |
| 2026-05-04 13:55 | 19.60227 | 110.14790 | 31774 ft | 537 kts | 21° |
| 2026-05-04 13:55 | 19.66997 | 110.18064 | 32580 ft | 533 kts | 20° |
| 2026-05-04 13:55 | 19.70370 | 110.19697 | 32967 ft | 532 kts | 20° |
| 2026-05-04 13:56 | 19.73727 | 110.21323 | 33414 ft | 530 kts | 20° |
| 2026-05-04 13:56 | 19.77074 | 110.22946 | 33836 ft | 528 kts | 20° |
| 2026-05-04 13:56 | 19.83740 | 110.26180 | 34571 ft | 525 kts | 20° |
| 2026-05-04 13:57 | 19.87050 | 110.27787 | 34941 ft | 523 kts | 20° |
| 2026-05-04 13:57 | 19.90361 | 110.29395 | 35151 ft | 524 kts | 20° |
| 2026-05-04 13:58 | 20.00319 | 110.34237 | 35117 ft | 522 kts | 20° |
| 2026-05-04 13:58 | 20.07062 | 110.36841 | 35118 ft | 510 kts | 5° |
| 2026-05-04 13:58 | 20.10566 | 110.37236 | 35130 ft | 504 kts | 356° |
| 2026-05-04 13:59 | 20.17419 | 110.36405 | 35146 ft | 493 kts | 343° |
| 2026-05-04 14:00 | 20.27466 | 110.34112 | 35139 ft | 496 kts | 343° |
| 2026-05-04 14:00 | 20.37642 | 110.31947 | 35144 ft | 497 kts | 343° |
| 2026-05-04 14:01 | 20.44429 | 110.30516 | 35146 ft | 497 kts | 343° |
| 2026-05-04 14:02 | 20.54825 | 110.29532 | 35145 ft | 507 kts | 358° |
| 2026-05-04 14:02 | 20.61872 | 110.30031 | 35154 ft | 508 kts | 359° |
| 2026-05-04 14:03 | 20.68912 | 110.30560 | 35154 ft | 508 kts | 358° |
| 2026-05-04 14:03 | 20.75962 | 110.31040 | 35151 ft | 507 kts | 358° |
| 2026-05-04 14:04 | 20.85343 | 110.31649 | 35147 ft | 507 kts | 358° |
| 2026-05-04 14:04 | 20.92395 | 110.32111 | 35147 ft | 507 kts | 358° |
| 2026-05-04 14:05 | 21.02958 | 110.32779 | 35148 ft | 507 kts | 357° |
| 2026-05-04 14:06 | 21.09992 | 110.33345 | 35136 ft | 512 kts | 7° |
| 2026-05-04 14:06 | 21.13410 | 110.34562 | 35149 ft | 523 kts | 20° |
| 2026-05-04 14:06 | 21.16568 | 110.36560 | 35155 ft | 533 kts | 33° |
| 2026-05-04 14:07 | 21.21905 | 110.42150 | 35159 ft | 540 kts | 43° |
| 2026-05-04 14:07 | 21.27041 | 110.47989 | 35156 ft | 543 kts | 43° |
| 2026-05-04 14:08 | 21.32305 | 110.53874 | 35151 ft | 544 kts | 42° |
| 2026-05-04 14:08 | 21.37561 | 110.59646 | 35152 ft | 544 kts | 41° |
| 2026-05-04 14:09 | 21.45520 | 110.68349 | 35154 ft | 544 kts | 41° |
| 2026-05-04 14:10 | 21.53465 | 110.77068 | 35156 ft | 544 kts | 41° |
| 2026-05-04 14:10 | 21.58751 | 110.82882 | 35158 ft | 544 kts | 41° |
| 2026-05-04 14:11 | 21.64069 | 110.88738 | 35161 ft | 544 kts | 41° |
| 2026-05-04 14:11 | 21.71961 | 110.97439 | 35164 ft | 544 kts | 41° |
| 2026-05-04 14:12 | 21.77249 | 111.03277 | 35166 ft | 545 kts | 41° |
| 2026-05-04 14:13 | 21.85175 | 111.12038 | 35166 ft | 544 kts | 41° |
| 2026-05-04 14:13 | 21.90458 | 111.17888 | 35168 ft | 545 kts | 41° |
| 2026-05-04 14:14 | 21.95750 | 111.23753 | 35180 ft | 546 kts | 42° |
| 2026-05-04 14:14 | 22.03701 | 111.32579 | 35177 ft | 547 kts | 41° |
| 2026-05-04 14:15 | 22.14302 | 111.44369 | 35193 ft | 547 kts | 41° |
| 2026-05-04 14:16 | 22.22253 | 111.53232 | 35156 ft | 548 kts | 41° |
| 2026-05-04 14:17 | 22.30115 | 111.62016 | 34861 ft | 536 kts | 41° |
| 2026-05-04 14:17 | 22.35303 | 111.67818 | 33046 ft | 537 kts | 41° |
| 2026-05-04 14:18 | 22.37925 | 111.70744 | 31851 ft | 544 kts | 41° |
| 2026-05-04 14:18 | 22.43188 | 111.76631 | 30123 ft | 543 kts | 42° |
| 2026-05-04 14:19 | 22.48333 | 111.82411 | 28768 ft | 531 kts | 42° |
| 2026-05-04 14:19 | 22.50869 | 111.85262 | 28211 ft | 523 kts | 42° |
| 2026-05-04 14:19 | 22.53369 | 111.88071 | 27621 ft | 517 kts | 42° |
| 2026-05-04 14:19 | 22.55858 | 111.90866 | 26988 ft | 512 kts | 42° |
| 2026-05-04 14:20 | 22.58324 | 111.93636 | 26343 ft | 508 kts | 42° |
| 2026-05-04 14:20 | 22.60764 | 111.96378 | 25762 ft | 504 kts | 43° |
| 2026-05-04 14:20 | 22.63165 | 111.99079 | 25239 ft | 498 kts | 43° |
| 2026-05-04 14:21 | 22.67871 | 112.04378 | 24171 ft | 489 kts | 43° |
| 2026-05-04 14:21 | 22.70177 | 112.06978 | 23688 ft | 483 kts | 43° |
| 2026-05-04 14:21 | 22.72446 | 112.09536 | 23096 ft | 479 kts | 43° |
| 2026-05-04 14:21 | 22.74757 | 112.12144 | 22466 ft | 476 kts | 43° |
| 2026-05-04 14:22 | 22.77040 | 112.14721 | 21905 ft | 471 kts | 43° |
| 2026-05-04 14:22 | 22.79283 | 112.17256 | 21370 ft | 467 kts | 43° |
| 2026-05-04 14:22 | 22.81526 | 112.19773 | 20888 ft | 460 kts | 41° |
| 2026-05-04 14:22 | 22.83772 | 112.22221 | 20313 ft | 457 kts | 43° |
| 2026-05-04 14:23 | 22.88068 | 112.27131 | 19779 ft | 437 kts | 43° |
| 2026-05-04 14:23 | 22.90139 | 112.29512 | 19379 ft | 432 kts | 43° |
| 2026-05-04 14:23 | 22.92191 | 112.31855 | 18941 ft | 428 kts | 43° |
| 2026-05-04 14:24 | 22.94235 | 112.34179 | 18475 ft | 425 kts | 43° |
| 2026-05-04 14:24 | 22.96267 | 112.36482 | 17981 ft | 422 kts | 43° |
| 2026-05-04 14:24 | 22.98286 | 112.38770 | 17490 ft | 418 kts | 43° |
| 2026-05-04 14:24 | 23.00290 | 112.41042 | 17031 ft | 415 kts | 43° |
| 2026-05-04 14:25 | 23.02276 | 112.43296 | 16572 ft | 411 kts | 43° |
| 2026-05-04 14:25 | 23.05969 | 112.47910 | 15716 ft | 400 kts | 60° |
| 2026-05-04 14:25 | 23.06917 | 112.50725 | 15581 ft | 400 kts | 79° |
| 2026-05-04 14:26 | 23.07119 | 112.53713 | 15555 ft | 394 kts | 91° |
| 2026-05-04 14:26 | 23.07095 | 112.56686 | 15324 ft | 393 kts | 92° |
| 2026-05-04 14:26 | 23.07045 | 112.59648 | 14941 ft | 391 kts | 92° |
| 2026-05-04 14:26 | 23.06998 | 112.62549 | 14586 ft | 388 kts | 92° |
| 2026-05-04 14:27 | 23.06961 | 112.65448 | 14220 ft | 385 kts | 92° |
| 2026-05-04 14:27 | 23.06936 | 112.68379 | 13799 ft | 383 kts | 92° |
| 2026-05-04 14:27 | 23.06917 | 112.71261 | 13365 ft | 380 kts | 92° |
| 2026-05-04 14:27 | 23.06903 | 112.74122 | 12973 ft | 377 kts | 92° |
| 2026-05-04 14:28 | 23.06890 | 112.76949 | 12630 ft | 374 kts | 92° |
| 2026-05-04 14:28 | 23.06877 | 112.79758 | 12248 ft | 370 kts | 92° |
| 2026-05-04 14:28 | 23.06864 | 112.82543 | 11878 ft | 367 kts | 92° |
| 2026-05-04 14:28 | 23.06851 | 112.85217 | 11799 ft | 354 kts | 92° |
| 2026-05-04 14:29 | 23.06821 | 112.90383 | 11659 ft | 331 kts | 92° |
| 2026-05-04 14:29 | 23.06781 | 112.95291 | 11404 ft | 316 kts | 92° |
| 2026-05-04 14:30 | 23.06760 | 112.97622 | 11180 ft | 312 kts | 92° |
| 2026-05-04 14:30 | 23.06739 | 112.99970 | 10943 ft | 309 kts | 92° |
| 2026-05-04 14:30 | 23.06699 | 113.04559 | 10867 ft | 306 kts | 92° |
| 2026-05-04 14:31 | 23.06678 | 113.06889 | 10862 ft | 311 kts | 92° |
| 2026-05-04 14:31 | 23.06177 | 113.11560 | 10857 ft | 309 kts | 108° |
| 2026-05-04 14:32 | 23.05048 | 113.16045 | 10613 ft | 306 kts | 107° |
| 2026-05-04 14:32 | 23.04538 | 113.18207 | 10082 ft | 296 kts | 107° |
| 2026-05-04 14:32 | 23.04224 | 113.20408 | 9267 ft | 297 kts | 86° |
| 2026-05-04 14:32 | 23.04838 | 113.22568 | 8231 ft | 301 kts | 56° |
| 2026-05-04 14:33 | 23.06287 | 113.24151 | 7163 ft | 303 kts | 29° |
| 2026-05-04 14:33 | 23.08228 | 113.24910 | 6095 ft | 301 kts | 5° |
| 2026-05-04 14:33 | 23.10285 | 113.24850 | 5290 ft | 291 kts | 354° |
| 2026-05-04 14:33 | 23.12102 | 113.24777 | 4651 ft | 283 kts | 1° |
| 2026-05-04 14:34 | 23.14042 | 113.24919 | 3916 ft | 276 kts | 7° |
| 2026-05-04 14:34 | 23.15918 | 113.25222 | 3218 ft | 271 kts | 12° |
| 2026-05-04 14:34 | 23.17650 | 113.25609 | 3232 ft | 238 kts | 14° |
| 2026-05-04 14:34 | 23.19176 | 113.25992 | 3238 ft | 218 kts | 15° |
| 2026-05-04 14:35 | 23.20632 | 113.26374 | 3288 ft | 215 kts | 15° |
| 2026-05-04 14:35 | 23.22094 | 113.26769 | 2965 ft | 223 kts | 15° |
| 2026-05-04 14:35 | 23.23600 | 113.27177 | 2709 ft | 226 kts | 15° |
| 2026-05-04 14:35 | 23.25097 | 113.27580 | 2425 ft | 227 kts | 15° |
| 2026-05-04 14:36 | 23.26629 | 113.27993 | 2118 ft | 228 kts | 15° |
| 2026-05-04 14:36 | 23.28137 | 113.28398 | 1861 ft | 223 kts | 15° |
| 2026-05-04 14:36 | 23.29478 | 113.28759 | 1566 ft | 209 kts | 15° |
| 2026-05-04 14:36 | 23.30859 | 113.29130 | 1282 ft | 186 kts | 15° |
| 2026-05-04 14:37 | 23.32019 | 113.29442 | 1069 ft | 164 kts | 15° |
| 2026-05-04 14:37 | 23.33086 | 113.29731 | 845 ft | 160 kts | 15° |
| 2026-05-04 14:37 | 23.34153 | 113.30018 | 664 ft | 162 kts | 14° |
| 2026-05-04 14:37 | 23.35156 | 113.30288 | 465 ft | 162 kts | 14° |
| 2026-05-04 14:38 | 23.36272 | 113.30588 | 241 ft | 161 kts | 14° |
| 2026-05-04 14:38 | 23.37356 | 113.30880 | 63 ft | 157 kts | 14° |
| 2026-05-04 14:38 | 23.38310 | 113.31138 | 59 ft | 128 kts | 14° |
| 2026-05-04 14:38 | 23.38992 | 113.31297 | 55 ft | 66 kts | 354° |
| 2026-05-04 14:39 | 23.39299 | 113.31224 | 60 ft | 41 kts | 351° |
| 2026-05-04 14:39 | 23.39540 | 113.31265 | 58 ft | 34 kts | 13° |
| 2026-05-04 14:39 | 23.39684 | 113.31304 | 59 ft | 10 kts | 8° |
| 2026-05-04 14:40 | 23.39741 | 113.31265 | 57 ft | 6 kts | 300° |
| 2026-05-04 14:40 | 23.39755 | 113.31223 | 57 ft | 7 kts | 287° |
| 2026-05-04 14:40 | 23.39769 | 113.31167 | 57 ft | 8 kts | 285° |
| 2026-05-04 14:40 | 23.39785 | 113.31103 | 56 ft | 10 kts | 285° |
| 2026-05-04 14:41 | 23.39803 | 113.31028 | 60 ft | 10 kts | 284° |
| 2026-05-04 14:41 | 23.39786 | 113.30954 | 58 ft | 11 kts | 235° |
| 2026-05-04 14:41 | 23.39736 | 113.30813 | 59 ft | 12 kts | 289° |
| 2026-05-04 14:42 | 23.39716 | 113.30713 | 57 ft | 5 kts | 226° |
| 2026-05-04 14:42 | 23.39698 | 113.30676 | 59 ft | 6 kts | 257° |
| 2026-05-04 14:42 | 23.39703 | 113.30626 | 57 ft | 7 kts | 284° |
| 2026-05-04 14:43 | 23.39707 | 113.30610 | 59 ft | 0 kts | 285° |
| 2026-05-04 14:43 | 23.39708 | 113.30603 | 59 ft | 0 kts | 285° |